aviador You're here:

SARP Decoded Metar

POSADAS in ARGENTINA
Report Time2018-04-24 14:00:00
UTC Time2018-04-24 14:12:01
Flight Rules vfr VFR
Wind110° at 04 kt
W.Decomp.*RWY 19: 1.5 kt HW 3.7 kt LCW
W.Rank110° ranks 5
Current wind is below 110° avg. (4.8)
Visibility9999 m
Phenomena:N/A
Clouds:N/A
Expected CloudBase > 2,000 ft AGL from Temp-Dew spread
CeilingNone
Temp26°C (ISA +12)
Dew Point21°C (74% RH)
QNH1019 hPa
Density Alt1,903 ft
Elevation410 ft
Report Wrong Elevation
Raw Report
SARP 241400Z 11004KT CAVOK 26/21 Q1019=

Extra information for SARP:More info

Metar Taf Metar & Taf Last 4 Metars F.Rules Stats Wind Profile Meteogram Temp Stats Airport Information Weather charts Add Link Nearby VenuesMetar ALERT Operation Metar Decoded Social comments